createdAt,value
2017-05-05T00:00:48.421Z,1018.53
2017-05-05T00:01:58.762Z,1018.46
2017-05-05T00:03:08.860Z,1018.47
2017-05-05T00:04:18.893Z,1018.46
2017-05-05T00:05:28.616Z,1018.47
2017-05-05T00:06:38.322Z,1018.46
2017-05-05T00:07:48.662Z,1018.42
2017-05-05T00:08:57.744Z,1018.45
2017-05-05T00:10:07.758Z,1018.48
2017-05-05T00:11:17.151Z,1018.44
2017-05-05T00:12:26.860Z,1018.45
2017-05-05T00:13:36.577Z,1018.47
2017-05-05T00:14:46.919Z,1018.46
2017-05-05T00:15:56.637Z,1018.46
2017-05-05T00:17:06.664Z,1018.5
2017-05-05T00:18:15.432Z,1018.47
2017-05-05T00:19:25.465Z,1018.47
2017-05-05T00:20:35.174Z,1018.47
2017-05-05T00:21:44.887Z,1018.46
2017-05-05T00:22:55.252Z,1018.47
2017-05-05T00:24:04.966Z,1018.46
2017-05-05T00:25:14.682Z,1018.43
2017-05-05T00:26:24.411Z,1018.43
2017-05-05T00:27:33.808Z,1018.41
2017-05-05T00:28:43.520Z,1018.44
2017-05-05T00:29:53.871Z,1018.38
2017-05-05T00:31:03.270Z,1018.41
2017-05-05T00:32:13.360Z,1018.42
2017-05-05T00:33:23.078Z,1018.4
2017-05-05T00:34:33.113Z,1018.39
2017-05-05T00:35:42.824Z,1018.35
2017-05-05T00:36:52.533Z,1018.45
2017-05-05T00:38:02.247Z,1018.41
2017-05-05T00:39:11.975Z,1018.36
2017-05-05T00:40:21.682Z,1018.36
2017-05-05T00:41:31.385Z,1018.34
2017-05-05T00:42:41.723Z,1018.34
2017-05-05T00:43:51.779Z,1018.34
2017-05-05T00:45:01.805Z,1018.33
2017-05-05T00:46:12.156Z,1018.2
2017-05-05T00:47:22.180Z,1018.32
2017-05-05T00:48:32.205Z,1018.29
2017-05-05T00:49:42.236Z,1018.24
2017-05-05T00:50:51.976Z,1018.27
2017-05-05T00:52:01.370Z,1018.25
2017-05-05T00:53:11.079Z,1018.23
2017-05-05T00:54:21.109Z,1018.25
2017-05-05T00:55:31.461Z,1018.27
2017-05-05T00:56:41.168Z,1018.21
2017-05-05T00:57:50.886Z,1018.27
2017-05-05T00:59:00.924Z,1018.26
2017-05-05T01:00:10.642Z,1018.22
2017-05-05T01:01:20.675Z,1018.28
2017-05-05T01:02:30.711Z,1018.26
2017-05-05T01:03:40.425Z,1018.28
2017-05-05T01:04:50.132Z,1018.23
2017-05-05T01:06:00.480Z,1018.29
2017-05-05T01:07:10.495Z,1018.24
2017-05-05T01:08:20.198Z,1018.27
2017-05-05T01:09:29.587Z,1018.23
2017-05-05T01:10:39.298Z,1018.2
2017-05-05T01:11:49.309Z,1018.26
2017-05-05T01:12:59.648Z,1018.17
2017-05-05T01:14:09.665Z,1018.18
2017-05-05T01:15:18.748Z,1018.23
2017-05-05T01:16:27.829Z,1018.24
2017-05-05T01:17:37.227Z,1018.25
2017-05-05T01:18:46.000Z,1018.24
2017-05-05T01:19:56.030Z,1018.27
2017-05-05T01:21:05.424Z,1018.24
2017-05-05T01:22:15.131Z,1018.23
2017-05-05T01:23:25.151Z,1018.21
2017-05-05T01:24:34.549Z,1018.25
2017-05-05T01:25:44.258Z,1018.22
2017-05-05T01:26:53.976Z,1018.18
2017-05-05T01:28:04.007Z,1018.18
2017-05-05T01:29:14.035Z,1018.21
2017-05-05T01:30:23.432Z,1018.23
2017-05-05T01:31:32.508Z,1018.24
2017-05-05T01:32:42.209Z,1018.24
2017-05-05T01:33:51.922Z,1018.31
2017-05-05T01:35:01.641Z,1018.24
2017-05-05T01:36:11.366Z,1018.26
2017-05-05T01:37:21.077Z,1018.23
2017-05-05T01:38:30.792Z,1018.21
2017-05-05T01:39:40.517Z,1018.2
2017-05-05T01:40:50.228Z,1018.18
2017-05-05T01:41:59.628Z,1018.15
2017-05-05T01:43:09.350Z,1018.14
2017-05-05T01:44:19.072Z,1018.17
2017-05-05T01:45:29.103Z,1018.14
2017-05-05T01:46:38.810Z,1018.16
2017-05-05T01:47:48.845Z,1018.19
2017-05-05T01:48:58.255Z,1018.13
2017-05-05T01:50:07.969Z,1018.11
2017-05-05T01:51:17.677Z,1018.14
2017-05-05T01:52:27.070Z,1018.14
2017-05-05T01:53:36.773Z,1018.21
2017-05-05T01:54:45.853Z,1018.09
2017-05-05T01:55:55.873Z,1018.15
2017-05-05T01:57:05.584Z,1018.12
2017-05-05T01:58:15.295Z,1018.09
2017-05-05T01:59:25.017Z,1018.14
2017-05-05T02:00:34.417Z,1018.09
2017-05-05T02:01:44.452Z,1018.08
2017-05-05T02:02:54.490Z,1018.14
2017-05-05T02:04:04.521Z,1018.09
2017-05-05T02:05:13.920Z,1018.17
2017-05-05T02:06:23.946Z,1018.2
2017-05-05T02:07:34.286Z,1018.19
2017-05-05T02:08:43.688Z,1018.19
2017-05-05T02:09:53.393Z,1018.16
2017-05-05T02:11:03.417Z,1018.2
2017-05-05T02:12:13.451Z,1018.13
2017-05-05T02:13:23.485Z,1018.15
2017-05-05T02:14:33.203Z,1018.19
2017-05-05T02:15:43.541Z,1018.14
2017-05-05T02:16:52.936Z,1018.18
2017-05-05T02:18:02.335Z,1018.16
2017-05-05T02:19:12.055Z,1018.19
2017-05-05T02:20:21.772Z,1018.19
2017-05-05T02:21:31.792Z,1018.18
2017-05-05T02:22:41.499Z,1018.18
2017-05-05T02:23:51.523Z,1018.17
2017-05-05T02:25:01.549Z,1018.21
2017-05-05T02:26:11.252Z,1018.22
2017-05-05T02:27:20.657Z,1018.22
2017-05-05T02:28:30.368Z,1018.22
2017-05-05T02:29:40.082Z,1018.21
2017-05-05T02:30:50.102Z,1018.22
2017-05-05T02:31:59.813Z,1018.26
2017-05-05T02:33:09.531Z,1018.18
2017-05-05T02:34:19.241Z,1018.23
2017-05-05T02:35:29.260Z,1018.26
2017-05-05T02:36:38.977Z,1018.22
2017-05-05T02:37:48.691Z,1018.21
2017-05-05T02:38:58.705Z,1018.24
2017-05-05T02:40:08.411Z,1018.21
2017-05-05T02:41:18.749Z,1018.22
2017-05-05T02:42:28.766Z,1018.21
2017-05-05T02:43:38.480Z,1018.23
2017-05-05T02:44:48.820Z,1018.23
2017-05-05T02:45:58.848Z,1018.24
2017-05-05T02:47:08.240Z,1018.2
2017-05-05T02:48:17.937Z,1018.21
2017-05-05T02:49:27.651Z,1018.21
2017-05-05T02:50:37.354Z,1018.17
2017-05-05T02:51:46.751Z,1018.2
2017-05-05T02:52:56.774Z,1018.18
2017-05-05T02:54:06.486Z,1018.21
2017-05-05T02:55:16.816Z,1018.16
2017-05-05T02:56:26.848Z,1018.15
2017-05-05T02:57:36.242Z,1018.15
2017-05-05T02:58:45.955Z,1018.16
2017-05-05T02:59:55.353Z,1018.18
2017-05-05T03:01:05.072Z,1018.13
2017-05-05T03:02:14.774Z,1018.15
2017-05-05T03:03:24.169Z,1018.16
2017-05-05T03:04:33.558Z,1018.09
2017-05-05T03:05:43.583Z,1018.11
2017-05-05T03:06:52.660Z,1018.14
2017-05-05T03:08:02.682Z,1018.13
2017-05-05T03:09:12.705Z,1018.1
2017-05-05T03:10:22.733Z,1018.08
2017-05-05T03:11:32.436Z,1018.12
2017-05-05T03:12:41.828Z,1018.13
2017-05-05T03:13:51.542Z,1018.1
2017-05-05T03:15:01.569Z,1018.08
2017-05-05T03:16:11.600Z,1018.14
2017-05-05T03:17:21.309Z,1018.1
2017-05-05T03:18:31.021Z,1018.1
2017-05-05T03:19:40.731Z,1018.1
2017-05-05T03:20:50.447Z,1018.14
2017-05-05T03:22:00.158Z,1018.11
2017-05-05T03:23:09.870Z,1018.13
2017-05-05T03:24:19.577Z,1018.1
2017-05-05T03:25:29.598Z,1018.15
2017-05-05T03:26:39.927Z,1018.13
2017-05-05T03:27:49.646Z,1018.14
2017-05-05T03:28:59.676Z,1018.12
2017-05-05T03:30:09.072Z,1018.15
2017-05-05T03:31:18.481Z,1018.09
2017-05-05T03:32:27.875Z,1018.12
2017-05-05T03:33:37.282Z,1018.14
2017-05-05T03:34:47.319Z,1018.11
2017-05-05T03:35:56.396Z,1018.15
2017-05-05T03:37:06.111Z,1018.16
2017-05-05T03:38:15.509Z,1018.17
2017-05-05T03:39:24.904Z,1018.17
2017-05-05T03:40:34.628Z,1018.19
2017-05-05T03:41:44.332Z,1018.18
2017-05-05T03:42:53.740Z,1018.2
2017-05-05T03:44:04.076Z,1018.16
2017-05-05T03:45:13.488Z,1018.18
2017-05-05T03:46:23.200Z,1018.22
2017-05-05T03:47:33.217Z,1018.21
2017-05-05T03:48:42.918Z,1018.14
2017-05-05T03:49:53.262Z,1018.13
2017-05-05T03:51:02.977Z,1018.13
2017-05-05T03:52:12.682Z,1018.14
2017-05-05T03:53:22.706Z,1018.12
2017-05-05T03:54:32.749Z,1018.13
2017-05-05T03:55:42.763Z,1018.1
2017-05-05T03:56:52.475Z,1018.07
2017-05-05T03:58:02.186Z,1018.11
2017-05-05T03:59:11.590Z,1018.1
2017-05-05T04:00:21.945Z,1018.04
2017-05-05T04:01:31.021Z,1018.04
2017-05-05T04:02:40.737Z,1018.08
2017-05-05T04:03:51.076Z,1018.07
2017-05-05T04:05:00.158Z,1018.05
2017-05-05T04:06:09.241Z,1018.08
2017-05-05T04:07:19.273Z,1018.09
2017-05-05T04:08:29.302Z,1018.05
2017-05-05T04:09:39.327Z,1018.1
2017-05-05T04:10:48.401Z,1018.06
2017-05-05T04:11:58.115Z,1018.07
2017-05-05T04:13:07.823Z,1018.05
2017-05-05T04:14:17.527Z,1018.07
2017-05-05T04:15:27.244Z,1018.03
2017-05-05T04:16:37.274Z,1018.01
2017-05-05T04:17:46.979Z,1018.07
2017-05-05T04:18:56.068Z,1018.08
2017-05-05T04:20:05.472Z,1018.06
2017-05-05T04:21:15.508Z,1018.08
2017-05-05T04:22:25.531Z,1018.03
2017-05-05T04:23:34.924Z,1018.1
2017-05-05T04:24:44.943Z,1018.08
2017-05-05T04:25:54.654Z,1018.11
2017-05-05T04:27:04.673Z,1018.07
2017-05-05T04:28:14.383Z,1018.12
2017-05-05T04:29:23.470Z,1018.07
2017-05-05T04:30:33.184Z,1018.11
2017-05-05T04:31:43.213Z,1018.09
2017-05-05T04:32:52.957Z,1018.16
2017-05-05T04:34:03.003Z,1018.09
2017-05-05T04:35:12.401Z,1018.08
2017-05-05T04:36:22.109Z,1018.12
2017-05-05T04:37:31.826Z,1018.14
2017-05-05T04:38:41.544Z,1018.11
2017-05-05T04:39:51.565Z,1018.11
2017-05-05T04:41:01.591Z,1018.11
2017-05-05T04:42:10.984Z,1018.09
2017-05-05T04:43:20.705Z,1018.09
2017-05-05T04:44:30.733Z,1018.11
2017-05-05T04:45:41.071Z,1018.08
2017-05-05T04:46:51.415Z,1018.11
2017-05-05T04:48:01.758Z,1018.13
2017-05-05T04:49:11.464Z,1018.08
2017-05-05T04:50:21.804Z,1018.15
2017-05-05T04:51:32.149Z,1018.14
2017-05-05T04:52:42.166Z,1018.12
2017-05-05T04:53:51.884Z,1018.12
2017-05-05T04:55:01.956Z,1018.14
2017-05-05T04:56:11.975Z,1018.16
2017-05-05T04:57:21.687Z,1018.17
2017-05-05T04:58:31.400Z,1018.13
2017-05-05T04:59:40.796Z,1018.21
2017-05-05T05:00:49.873Z,1018.19
2017-05-05T05:01:59.586Z,1018.17
2017-05-05T05:03:09.613Z,1018.23
2017-05-05T05:04:19.637Z,1018.22
2017-05-05T05:05:29.352Z,1018.19
2017-05-05T05:06:39.379Z,1018.23
2017-05-05T05:07:49.094Z,1018.25
2017-05-05T05:08:59.442Z,1018.23
2017-05-05T05:10:09.160Z,1018.21
2017-05-05T05:11:19.183Z,1018.25
2017-05-05T05:12:28.584Z,1018.15
2017-05-05T05:13:38.310Z,1018.22
2017-05-05T05:14:48.339Z,1018.26
2017-05-05T05:15:57.739Z,1018.15
2017-05-05T05:17:07.137Z,1018.25
2017-05-05T05:18:17.487Z,1018.26
2017-05-05T05:19:27.826Z,1018.23
2017-05-05T05:20:38.172Z,1018.22
2017-05-05T05:21:48.506Z,1018.21
2017-05-05T05:22:57.903Z,1018.21
2017-05-05T05:24:07.618Z,1018.28
2017-05-05T05:25:17.980Z,1018.27
2017-05-05T05:26:28.330Z,1018.32
2017-05-05T05:27:38.367Z,1018.36
2017-05-05T05:28:48.082Z,1018.28
2017-05-05T05:29:57.792Z,1018.28
2017-05-05T05:31:08.134Z,1018.35
2017-05-05T05:32:18.150Z,1018.29
2017-05-05T05:33:27.863Z,1018.39
2017-05-05T05:34:37.881Z,1018.36
2017-05-05T05:35:47.600Z,1018.42
2017-05-05T05:36:57.617Z,1018.42
2017-05-05T05:38:07.322Z,1018.38
2017-05-05T05:39:17.349Z,1018.4
2017-05-05T05:40:27.060Z,1018.42
2017-05-05T05:41:36.768Z,1018.47
2017-05-05T05:42:47.101Z,1018.42
2017-05-05T05:43:56.509Z,1018.39
2017-05-05T05:45:06.858Z,1018.41
2017-05-05T05:46:16.877Z,1018.45
2017-05-05T05:47:26.586Z,1018.41
2017-05-05T05:48:36.302Z,1018.43
2017-05-05T05:49:46.335Z,1018.38
2017-05-05T05:50:56.039Z,1018.43
2017-05-05T05:52:06.079Z,1018.45
2017-05-05T05:53:14.850Z,1018.47
2017-05-05T05:54:24.572Z,1018.49
2017-05-05T05:55:33.342Z,1018.48
2017-05-05T05:56:42.739Z,1018.54
2017-05-05T05:57:52.458Z,1018.54
2017-05-05T05:59:01.540Z,1018.57
2017-05-05T06:00:10.940Z,1018.56
2017-05-05T06:01:20.965Z,1018.56
2017-05-05T06:02:30.672Z,1018.51
2017-05-05T06:03:40.723Z,1018.5
2017-05-05T06:04:49.852Z,1018.51
2017-05-05T06:05:59.877Z,1018.46
2017-05-05T06:07:09.586Z,1018.52
2017-05-05T06:08:19.611Z,1018.52
2017-05-05T06:09:29.323Z,1018.56
2017-05-05T06:10:38.728Z,1018.51
2017-05-05T06:11:48.447Z,1018.53
2017-05-05T06:12:58.158Z,1018.51
2017-05-05T06:14:07.870Z,1018.52
2017-05-05T06:15:18.215Z,1018.54
2017-05-05T06:16:27.619Z,1018.55
2017-05-05T06:17:37.327Z,1018.54
2017-05-05T06:18:47.035Z,1018.56
2017-05-05T06:19:56.751Z,1018.51
2017-05-05T06:21:06.792Z,1018.49
2017-05-05T06:22:16.509Z,1018.55
2017-05-05T06:23:26.538Z,1018.57
2017-05-05T06:24:36.597Z,1018.59
2017-05-05T06:25:46.314Z,1018.58
2017-05-05T06:26:56.647Z,1018.6
2017-05-05T06:28:06.364Z,1018.62
2017-05-05T06:29:16.390Z,1018.6
2017-05-05T06:30:26.731Z,1018.63
2017-05-05T06:31:37.074Z,1018.68
2017-05-05T06:32:46.786Z,1018.68
2017-05-05T06:33:55.872Z,1018.67
2017-05-05T06:35:05.903Z,1018.68
2017-05-05T06:36:15.924Z,1018.7
2017-05-05T06:37:25.638Z,1018.72
2017-05-05T06:38:35.040Z,1018.66
2017-05-05T06:39:44.127Z,1018.61
2017-05-05T06:40:54.155Z,1018.65
2017-05-05T06:42:04.189Z,1018.66
2017-05-05T06:43:13.897Z,1018.66
2017-05-05T06:44:23.605Z,1018.72
2017-05-05T06:45:33.620Z,1018.59
2017-05-05T06:46:43.333Z,1018.62
2017-05-05T06:47:53.361Z,1018.63
2017-05-05T06:49:03.704Z,1018.66
2017-05-05T06:50:13.409Z,1018.66
2017-05-05T06:51:23.752Z,1018.65
2017-05-05T06:52:33.149Z,1018.68
2017-05-05T06:53:42.861Z,1018.69
2017-05-05T06:54:52.568Z,1018.73
2017-05-05T06:56:01.975Z,1018.73
2017-05-05T06:57:11.682Z,1018.68
2017-05-05T06:58:22.026Z,1018.68
2017-05-05T06:59:32.048Z,1018.68
2017-05-05T07:00:42.070Z,1018.66
2017-05-05T07:01:51.783Z,1018.71
2017-05-05T07:03:00.863Z,1018.67
2017-05-05T07:04:10.575Z,1018.69
2017-05-05T07:05:20.270Z,1018.71
2017-05-05T07:06:29.672Z,1018.73
2017-05-05T07:07:39.076Z,1018.78
2017-05-05T07:08:49.104Z,1018.8
2017-05-05T07:09:59.141Z,1018.82
2017-05-05T07:11:09.176Z,1018.86
2017-05-05T07:12:18.885Z,1018.82
2017-05-05T07:13:27.964Z,1018.86
2017-05-05T07:14:37.992Z,1018.87
2017-05-05T07:15:47.076Z,1018.86
2017-05-05T07:16:56.470Z,1018.87
2017-05-05T07:18:05.924Z,1018.88
2017-05-05T07:19:15.317Z,1018.88
2017-05-05T07:20:25.654Z,1018.92
2017-05-05T07:21:35.062Z,1018.93
2017-05-05T07:22:44.768Z,1018.92
2017-05-05T07:23:54.170Z,1018.93
2017-05-05T07:25:03.568Z,1018.96
2017-05-05T07:26:12.972Z,1018.93
2017-05-05T07:27:22.383Z,1018.93
2017-05-05T07:28:32.424Z,1018.93
2017-05-05T07:29:42.466Z,1018.95
2017-05-05T07:30:51.876Z,1018.96
2017-05-05T07:32:01.583Z,1018.89
2017-05-05T07:33:11.303Z,1018.9
2017-05-05T07:34:21.343Z,1018.94
2017-05-05T07:35:31.370Z,1018.93
2017-05-05T07:36:41.102Z,1018.9
2017-05-05T07:37:50.491Z,1018.97
2017-05-05T07:39:00.530Z,1018.96
2017-05-05T07:40:09.975Z,1018.93
2017-05-05T07:41:19.708Z,1018.96
2017-05-05T07:42:29.119Z,1018.99
2017-05-05T07:43:39.456Z,1018.97
2017-05-05T07:44:49.478Z,1018.96
2017-05-05T07:45:59.519Z,1018.98
2017-05-05T07:47:09.222Z,1019.04
2017-05-05T07:48:18.932Z,1019
2017-05-05T07:49:28.643Z,1019.05
2017-05-05T07:50:38.350Z,1018.99
2017-05-05T07:51:48.376Z,1018.98
2017-05-05T07:52:58.720Z,1018.99
2017-05-05T07:54:08.444Z,1019.02
2017-05-05T07:55:17.848Z,1019.01
2017-05-05T07:56:27.566Z,1019.02
2017-05-05T07:57:37.897Z,1019.02
2017-05-05T07:58:48.253Z,1018.94
2017-05-05T07:59:57.340Z,1018.93
2017-05-05T08:01:07.371Z,1018.95
2017-05-05T08:02:16.772Z,1018.89
2017-05-05T08:03:26.165Z,1018.96
2017-05-05T08:04:36.194Z,1018.94
2017-05-05T08:05:45.908Z,1018.93
2017-05-05T08:06:55.965Z,1018.9
2017-05-05T08:08:05.369Z,1018.95
2017-05-05T08:09:15.392Z,1018.86
2017-05-05T08:10:25.102Z,1018.91
2017-05-05T08:11:34.824Z,1018.9
2017-05-05T08:12:44.224Z,1018.91
2017-05-05T08:13:53.935Z,1018.86
2017-05-05T08:15:03.660Z,1018.9
2017-05-05T08:16:13.684Z,1018.91
2017-05-05T08:17:23.392Z,1018.92
2017-05-05T08:18:33.102Z,1018.9
2017-05-05T08:19:42.818Z,1018.9
2017-05-05T08:20:52.526Z,1018.91
2017-05-05T08:22:01.921Z,1018.96
2017-05-05T08:23:11.003Z,1018.95
2017-05-05T08:24:21.022Z,1018.97
2017-05-05T08:25:30.105Z,1018.93
2017-05-05T08:26:40.459Z,1018.92
2017-05-05T08:27:50.174Z,1018.89
2017-05-05T08:28:59.881Z,1018.92
2017-05-05T08:30:10.227Z,1018.86
2017-05-05T08:31:20.252Z,1018.91
2017-05-05T08:32:29.331Z,1018.92
2017-05-05T08:33:39.050Z,1018.91
2017-05-05T08:34:48.772Z,1018.93
2017-05-05T08:35:58.168Z,1018.92
2017-05-05T08:37:08.199Z,1018.99
2017-05-05T08:38:17.915Z,1018.97
2017-05-05T08:39:27.631Z,1018.95
2017-05-05T08:40:37.336Z,1018.96
2017-05-05T08:41:47.049Z,1018.98
2017-05-05T08:42:57.086Z,1018.96
2017-05-05T08:44:06.493Z,1018.96
2017-05-05T08:45:16.528Z,1018.96
2017-05-05T08:46:26.240Z,1018.93
2017-05-05T08:47:36.274Z,1019
2017-05-05T08:48:45.672Z,1018.97
2017-05-05T08:49:55.696Z,1019.02
2017-05-05T08:51:05.414Z,1019.01
2017-05-05T08:52:15.125Z,1019.04
2017-05-05T08:53:25.161Z,1018.99
2017-05-05T08:54:35.193Z,1018.99
2017-05-05T08:55:44.281Z,1019.01
2017-05-05T08:56:54.312Z,1019.02
2017-05-05T08:58:03.731Z,1019.03
2017-05-05T08:59:12.495Z,1019.06
2017-05-05T09:00:22.215Z,1019.01
2017-05-05T09:01:32.243Z,1019.06
2017-05-05T09:02:42.273Z,1019.08
2017-05-05T09:03:52.297Z,1019.06
2017-05-05T09:05:01.695Z,1019.05
2017-05-05T09:06:11.100Z,1019.04
2017-05-05T09:07:21.145Z,1019.05
2017-05-05T09:08:31.496Z,1019.03
2017-05-05T09:09:41.840Z,1019.01
2017-05-05T09:10:52.177Z,1019.05
2017-05-05T09:12:02.218Z,1019.06
2017-05-05T09:13:12.246Z,1019.05
2017-05-05T09:14:22.273Z,1019.02
2017-05-05T09:15:31.979Z,1019.06
2017-05-05T09:16:42.007Z,1019.03
2017-05-05T09:17:52.043Z,1019.04
2017-05-05T09:19:02.071Z,1019.04
2017-05-05T09:20:12.095Z,1019.05
2017-05-05T09:21:21.814Z,1019.07
2017-05-05T09:22:31.844Z,1019.01
2017-05-05T09:23:41.241Z,1019.04
2017-05-05T09:24:50.958Z,1019.09
2017-05-05T09:26:01.023Z,1019.01
2017-05-05T09:27:10.730Z,1019.11
2017-05-05T09:28:20.436Z,1019.07
2017-05-05T09:29:29.835Z,1019.1
2017-05-05T09:30:39.232Z,1019.1
2017-05-05T09:31:49.575Z,1019.07
2017-05-05T09:32:58.966Z,1019.05
2017-05-05T09:34:08.683Z,1019.07
2017-05-05T09:35:18.388Z,1019.06
2017-05-05T09:36:27.789Z,1019.06
2017-05-05T09:37:36.876Z,1019.13
2017-05-05T09:38:46.922Z,1019.09
2017-05-05T09:39:57.267Z,1019.12
2017-05-05T09:41:06.977Z,1019.11
2017-05-05T09:42:16.686Z,1019.08
2017-05-05T09:43:26.715Z,1019.09
2017-05-05T09:44:35.799Z,1019.06
2017-05-05T09:45:45.511Z,1019.07
2017-05-05T09:46:54.905Z,1019.08
2017-05-05T09:48:04.314Z,1019.08
2017-05-05T09:49:13.736Z,1019.1
2017-05-05T09:50:23.131Z,1019.1
2017-05-05T09:51:31.910Z,1019.09
2017-05-05T09:52:41.627Z,1019.09
2017-05-05T09:53:51.657Z,1019.12
2017-05-05T09:55:01.688Z,1019.16
2017-05-05T09:56:11.714Z,1019.19
2017-05-05T09:57:21.426Z,1019.1
2017-05-05T09:58:31.450Z,1019.07
2017-05-05T09:59:41.477Z,1019.14
2017-05-05T10:00:51.190Z,1019.09
2017-05-05T10:02:01.218Z,1019.11
2017-05-05T10:03:10.930Z,1019.11
2017-05-05T10:04:21.272Z,1019.12
2017-05-05T10:05:30.668Z,1019.11
2017-05-05T10:06:40.380Z,1019.11
2017-05-05T10:07:50.098Z,1019.06
2017-05-05T10:08:59.821Z,1019.08
2017-05-05T10:10:09.850Z,1019.12
2017-05-05T10:11:19.880Z,1019.12
2017-05-05T10:12:29.592Z,1019.12
2017-05-05T10:13:39.313Z,1019.09
2017-05-05T10:14:49.351Z,1019.1
2017-05-05T10:15:58.761Z,1019.13
2017-05-05T10:17:08.157Z,1019.16
2017-05-05T10:18:17.867Z,1019.15
2017-05-05T10:19:27.590Z,1019.2
2017-05-05T10:20:37.301Z,1019.14
2017-05-05T10:21:47.385Z,1019.21
2017-05-05T10:22:57.098Z,1019.25
2017-05-05T10:24:07.134Z,1019.21
2017-05-05T10:25:17.172Z,1019.23
2017-05-05T10:26:26.577Z,1019.18
2017-05-05T10:27:36.603Z,1019.18
2017-05-05T10:28:46.653Z,1019.16
2017-05-05T10:29:56.689Z,1019.19
2017-05-05T10:31:06.398Z,1019.14
2017-05-05T10:32:16.128Z,1019.19
2017-05-05T10:33:25.839Z,1019.21
2017-05-05T10:34:35.877Z,1019.2
2017-05-05T10:35:45.284Z,1019.23
2017-05-05T10:36:55.019Z,1019.25
2017-05-05T10:38:04.433Z,1019.2
2017-05-05T10:39:14.150Z,1019.22
2017-05-05T10:40:23.556Z,1019.21
2017-05-05T10:41:33.603Z,1019.23
2017-05-05T10:42:43.006Z,1019.27
2017-05-05T10:43:53.037Z,1019.35
2017-05-05T10:45:02.756Z,1019.33
2017-05-05T10:46:12.164Z,1019.23
2017-05-05T10:47:21.564Z,1019.24
2017-05-05T10:48:30.657Z,1019.2
2017-05-05T10:49:40.376Z,1019.17
2017-05-05T10:50:50.100Z,1019.18
2017-05-05T10:51:59.816Z,1019.16
2017-05-05T10:53:10.161Z,1019.17
2017-05-05T10:54:20.509Z,1019.19
2017-05-05T10:55:29.905Z,1019.23
2017-05-05T10:56:39.618Z,1019.21
2017-05-05T10:57:49.652Z,1019.28
2017-05-05T10:58:59.367Z,1019.29
2017-05-05T11:00:09.401Z,1019.26
2017-05-05T11:01:19.437Z,1019.3
2017-05-05T11:02:29.155Z,1019.28
2017-05-05T11:03:39.200Z,1019.29
2017-05-05T11:04:48.615Z,1019.28
2017-05-05T11:05:58.348Z,1019.26
2017-05-05T11:07:07.754Z,1019.26
2017-05-05T11:08:17.174Z,1019.28
2017-05-05T11:09:27.553Z,1019.26
2017-05-05T11:10:37.596Z,1019.33
2017-05-05T11:11:47.006Z,1019.35
2017-05-05T11:12:56.409Z,1019.4
2017-05-05T11:14:05.812Z,1019.38
2017-05-05T11:15:15.849Z,1019.34
2017-05-05T11:16:25.567Z,1019.41
2017-05-05T11:17:34.665Z,1019.43
2017-05-05T11:18:44.392Z,1019.55
2017-05-05T11:19:53.486Z,1019.52
2017-05-05T11:21:03.210Z,1019.48
2017-05-05T11:22:12.628Z,1019.51
2017-05-05T11:23:22.355Z,1019.48
2017-05-05T11:24:32.075Z,1019.5
2017-05-05T11:25:41.803Z,1019.47
2017-05-05T11:26:51.846Z,1019.42
2017-05-05T11:28:01.574Z,1019.44
2017-05-05T11:29:11.610Z,1019.44
2017-05-05T11:30:21.342Z,1019.47
2017-05-05T11:31:30.759Z,1019.45
2017-05-05T11:32:40.801Z,1019.44
2017-05-05T11:33:50.869Z,1019.47
2017-05-05T11:35:00.591Z,1019.45
2017-05-05T11:36:10.309Z,1019.45
2017-05-05T11:37:19.726Z,1019.4
2017-05-05T11:38:28.831Z,1019.45
2017-05-05T11:39:38.568Z,1019.45
2017-05-05T11:40:48.293Z,1019.42
2017-05-05T11:41:58.349Z,1019.45
2017-05-05T11:43:08.410Z,1019.45
2017-05-05T11:44:17.818Z,1019.48
2017-05-05T11:45:27.599Z,1019.4
2017-05-05T11:46:37.342Z,1019.4
2017-05-05T11:47:47.389Z,1019.33
2017-05-05T11:48:56.505Z,1019.28
2017-05-05T11:50:06.867Z,1019.23
2017-05-05T11:51:16.921Z,1019.16
2017-05-05T11:52:27.280Z,1019.14
2017-05-05T11:53:37.040Z,1019.13
2017-05-05T11:54:46.776Z,1019.13
2017-05-05T11:55:56.504Z,1019.11
2017-05-05T11:57:05.911Z,1019.07
2017-05-05T11:58:15.956Z,1019.09
2017-05-05T11:59:25.050Z,1019.07
2017-05-05T12:00:35.401Z,1019.03
2017-05-05T12:01:44.810Z,1019.04
2017-05-05T12:02:54.228Z,1019.04
2017-05-05T12:04:03.631Z,1019
2017-05-05T12:05:13.349Z,1019.05
2017-05-05T12:06:22.752Z,1019.02
2017-05-05T12:07:32.163Z,1019.1
2017-05-05T12:08:42.201Z,1019.07
2017-05-05T12:09:52.236Z,1019.08
2017-05-05T12:11:02.593Z,1019.05
2017-05-05T12:12:11.994Z,1019.1
2017-05-05T12:13:22.017Z,1019.07
2017-05-05T12:14:31.738Z,1019.01
2017-05-05T12:15:41.772Z,1019.05
2017-05-05T12:16:51.800Z,1019.11
2017-05-05T12:18:01.202Z,1019.08
2017-05-05T12:19:11.222Z,1019.08
2017-05-05T12:20:20.633Z,1019.06
2017-05-05T12:21:30.670Z,1019.07
2017-05-05T12:22:40.698Z,1019.09
2017-05-05T12:23:50.726Z,1019.09
2017-05-05T12:25:00.765Z,1019.09
2017-05-05T12:26:10.789Z,1019.09
2017-05-05T12:27:20.183Z,1019.07
2017-05-05T12:28:29.898Z,1019.05
2017-05-05T12:29:39.306Z,1019.06
2017-05-05T12:30:49.028Z,1019.02
2017-05-05T12:31:58.744Z,1019.06
2017-05-05T12:33:08.164Z,1019.03
2017-05-05T12:34:17.249Z,1019.04
2017-05-05T12:35:27.000Z,1018.98
2017-05-05T12:36:37.043Z,1018.99
2017-05-05T12:37:47.072Z,1018.98
2017-05-05T12:38:56.790Z,1018.91
2017-05-05T12:40:06.830Z,1018.95
2017-05-05T12:41:16.236Z,1018.97
2017-05-05T12:42:25.957Z,1018.96
2017-05-05T12:43:37.420Z,1018.95
2017-05-05T12:44:47.695Z,1018.9
2017-05-05T12:45:57.404Z,1018.92
2017-05-05T12:47:07.427Z,1018.9
2017-05-05T12:48:17.450Z,1018.91
2017-05-05T12:49:27.160Z,1018.9
2017-05-05T12:50:36.588Z,1018.84
2017-05-05T12:51:45.987Z,1018.83
2017-05-05T12:52:55.696Z,1018.83
2017-05-05T12:54:05.483Z,1018.86
2017-05-05T12:55:14.574Z,1018.85
2017-05-05T12:56:24.608Z,1018.88
2017-05-05T12:57:34.320Z,1018.92
2017-05-05T12:58:44.035Z,1018.9
2017-05-05T12:59:53.759Z,1018.94
2017-05-05T13:01:03.158Z,1018.94
2017-05-05T13:02:12.551Z,1018.92
2017-05-05T13:03:21.944Z,1018.93
2017-05-05T13:04:31.663Z,1018.9
2017-05-05T13:05:41.698Z,1018.92
2017-05-05T13:06:51.100Z,1018.9
2017-05-05T13:08:01.139Z,1018.92
2017-05-05T13:09:11.165Z,1018.84
2017-05-05T13:10:21.195Z,1018.82
2017-05-05T13:11:30.598Z,1018.8
2017-05-05T13:12:40.939Z,1018.8
2017-05-05T13:13:51.282Z,1018.81
2017-05-05T13:15:00.995Z,1018.82
2017-05-05T13:16:10.704Z,1018.78
2017-05-05T13:17:20.107Z,1018.76
2017-05-05T13:18:29.825Z,1018.73
2017-05-05T13:19:39.535Z,1018.75
2017-05-05T13:20:49.251Z,1018.73
2017-05-05T13:21:58.652Z,1018.71
2017-05-05T13:23:08.047Z,1018.74
2017-05-05T13:24:18.403Z,1018.75
2017-05-05T13:25:27.484Z,1018.77
2017-05-05T13:26:37.194Z,1018.76
2017-05-05T13:27:46.910Z,1018.77
2017-05-05T13:28:56.035Z,1018.81
2017-05-05T13:30:05.751Z,1018.81
2017-05-05T13:31:16.101Z,1018.78
2017-05-05T13:32:25.820Z,1018.76
2017-05-05T13:33:35.860Z,1018.8
2017-05-05T13:34:45.578Z,1018.74
2017-05-05T13:35:55.293Z,1018.77
2017-05-05T13:37:05.349Z,1018.74
2017-05-05T13:38:15.379Z,1018.67
2017-05-05T13:39:25.094Z,1018.66
2017-05-05T13:40:34.512Z,1018.64
2017-05-05T13:41:44.554Z,1018.61
2017-05-05T13:42:53.647Z,1018.48
2017-05-05T13:44:03.056Z,1018.44
2017-05-05T13:45:12.137Z,1018.42
2017-05-05T13:46:22.167Z,1018.54
2017-05-05T13:47:31.878Z,1018.5
2017-05-05T13:48:42.230Z,1018.61
2017-05-05T13:49:51.325Z,1018.55
2017-05-05T13:51:00.729Z,1018.45
2017-05-05T13:52:10.773Z,1018.47
2017-05-05T13:53:20.491Z,1018.49
2017-05-05T13:54:29.579Z,1018.47
2017-05-05T13:55:38.992Z,1018.49
2017-05-05T13:56:48.397Z,1018.45
2017-05-05T13:57:58.434Z,1018.49
2017-05-05T13:59:08.477Z,1018.54
2017-05-05T14:00:18.504Z,1018.44
2017-05-05T14:01:28.217Z,1018.45
2017-05-05T14:02:37.941Z,1018.38
2017-05-05T14:03:47.659Z,1018.35
2017-05-05T14:04:57.389Z,1018.33
2017-05-05T14:06:07.119Z,1018.36